Time;durP1;ratioP1;P1;durP2;ratioP2;P2;SDS_P1;SDS_P2;PMS_P1;PMS_P2;Temp;Humidity;BMP_temperature;BMP_pressure;BME280_temperature;BME280_humidity;BME280_pressure;Samples;Min_cycle;Max_cycle;Signal;HPM_P1;HPM_P2
2021/03/26 00:00:40;;;;;;;21.60;9.93;;;8.70;85.20;;;;;;5012813;28;20022;-74
2021/03/26 00:03:14;;;;;;;20.13;8.90;;;8.60;85.70;;;;;;5000917;28;20019;-74
2021/03/26 00:05:40;;;;;;;27.67;10.75;;;8.50;86.10;;;;;;5007991;28;20018;-76
2021/03/26 00:08:06;;;;;;;22.15;9.73;;;8.50;86.80;;;;;;5006909;28;20113;-74
2021/03/26 00:10:33;;;;;;;24.27;10.45;;;8.40;86.50;;;;;;5003005;28;20018;-74
2021/03/26 00:12:59;;;;;;;17.02;9.27;;;8.50;87.00;;;;;;4996198;28;20030;-73
2021/03/26 00:15:25;;;;;;;21.08;9.63;;;8.50;86.80;;;;;;5007290;28;20073;-74
2021/03/26 00:17:51;;;;;;;25.35;9.20;;;8.50;87.00;;;;;;5012357;28;20036;-76
2021/03/26 00:20:17;;;;;;;14.85;9.00;;;8.50;87.00;;;;;;5012402;28;20109;-76
2021/03/26 00:22:42;;;;;;;18.75;8.70;;;8.50;87.00;;;;;;5012458;28;20084;-74
2021/03/26 00:25:10;;;;;;;21.65;8.75;;;8.50;87.10;;;;;;5011667;28;20480;-74
2021/03/26 00:27:36;;;;;;;21.40;8.93;;;8.50;86.90;;;;;;5012148;28;20113;-74
2021/03/26 00:30:04;;;;;;;24.00;8.05;;;8.50;87.00;;;;;;4995471;28;20034;-75
2021/03/26 00:32:30;;;;;;;24.50;7.68;;;8.50;86.50;;;;;;5012339;28;20030;-76
2021/03/26 00:34:55;;;;;;;16.42;7.38;;;8.60;86.40;;;;;;5012176;28;20026;-74
2021/03/26 00:37:22;;;;;;;15.38;7.30;;;8.60;86.70;;;;;;5012419;28;20026;-73
2021/03/26 00:39:48;;;;;;;16.45;7.20;;;8.60;86.40;;;;;;5006057;28;20093;-74
2021/03/26 00:42:15;;;;;;;16.85;6.30;;;8.60;86.30;;;;;;5012251;28;20050;-75
2021/03/26 00:44:41;;;;;;;13.15;5.90;;;8.60;85.40;;;;;;5004709;28;20482;-76
2021/03/26 00:47:07;;;;;;;14.07;6.40;;;8.70;84.60;;;;;;5008979;28;20112;-74
2021/03/26 00:49:32;;;;;;;15.82;6.18;;;8.60;84.70;;;;;;5011390;28;20117;-74
2021/03/26 00:51:58;;;;;;;17.73;6.03;;;8.60;85.20;;;;;;4997874;28;20457;-74
2021/03/26 00:54:24;;;;;;;14.90;5.82;;;8.50;85.00;;;;;;4997897;28;20077;-74
2021/03/26 00:56:49;;;;;;;15.07;5.57;;;8.50;84.70;;;;;;5011938;28;20029;-76
2021/03/26 00:59:15;;;;;;;15.10;6.03;;;8.50;85.00;;;;;;5011369;28;20053;-76
2021/03/26 01:01:41;;;;;;;15.90;6.32;;;8.50;85.10;;;;;;5009170;28;20029;-74
2021/03/26 01:04:07;;;;;;;18.00;6.22;;;8.40;85.60;;;;;;4998873;28;20037;-74
2021/03/26 01:06:33;;;;;;;15.65;5.32;;;8.40;85.30;;;;;;5006941;28;20038;-74
2021/03/26 01:08:59;;;;;;;14.65;4.47;;;8.40;85.40;;;;;;5007096;28;20022;-74
2021/03/26 01:11:29;;;;;;;16.60;6.25;;;8.40;85.10;;;;;;5000846;28;20475;-76
2021/03/26 01:13:56;;;;;;;10.65;4.85;;;8.40;84.90;;;;;;5011832;28;20018;-74
2021/03/26 01:16:23;;;;;;;11.55;4.80;;;8.40;84.80;;;;;;5011546;28;20096;-74
2021/03/26 01:18:49;;;;;;;12.77;5.20;;;8.40;84.60;;;;;;5015632;28;20084;-74
2021/03/26 01:21:27;;;;;;;12.13;4.53;;;8.40;84.80;;;;;;5015720;28;20447;-74
2021/03/26 01:23:53;;;;;;;11.65;5.15;;;8.40;84.70;;;;;;5014698;28;20029;-75
2021/03/26 01:26:19;;;;;;;11.05;5.47;;;8.40;84.90;;;;;;5015154;28;20066;-74
2021/03/26 01:28:45;;;;;;;11.50;5.18;;;8.30;85.30;;;;;;5008385;28;20022;-74
2021/03/26 01:31:12;;;;;;;15.82;6.18;;;8.30;85.70;;;;;;5006614;28;20037;-74
2021/03/26 01:33:38;;;;;;;15.18;5.80;;;8.20;85.90;;;;;;5015266;28;20026;-74
2021/03/26 01:36:04;;;;;;;15.38;5.40;;;8.20;86.50;;;;;;5015127;28;20109;-75
2021/03/26 01:38:30;;;;;;;15.35;5.28;;;8.20;86.00;;;;;;5015297;28;20018;-75
2021/03/26 01:41:03;;;;;;;12.93;5.60;;;8.20;86.60;;;;;;5007931;28;21606;-74
2021/03/26 01:43:35;;;;;;;11.63;5.28;;;8.20;86.50;;;;;;5015002;28;20421;-74
2021/03/26 01:46:02;;;;;;;12.38;5.78;;;8.20;86.30;;;;;;5004356;28;20034;-73
2021/03/26 01:48:32;;;;;;;15.90;7.63;;;8.10;86.30;;;;;;5015077;28;20038;-76
2021/03/26 01:51:01;;;;;;;23.67;11.50;;;8.00;86.90;;;;;;5008937;28;20048;-75
2021/03/26 01:53:27;;;;;;;30.05;10.40;;;7.90;88.40;;;;;;5009903;28;20034;-74
2021/03/26 01:55:56;;;;;;;15.20;9.27;;;7.80;88.80;;;;;;5011723;28;20033;-74
2021/03/26 01:58:24;;;;;;;21.00;8.55;;;7.70;88.70;;;;;;5014580;28;20469;-74
2021/03/26 02:01:13;;;;;;;17.25;7.63;;;7.70;88.70;;;;;;5014894;28;20022;-73
2021/03/26 02:03:45;;;;;;;23.25;8.68;;;7.70;88.50;;;;;;4999878;28;20397;-75
2021/03/26 02:06:21;;;;;;;15.25;7.10;;;7.80;88.60;;;;;;5013664;28;20542;-74
2021/03/26 02:08:48;;;;;;;15.77;7.68;;;7.80;87.50;;;;;;5009010;28;20081;-74
2021/03/26 02:11:32;;;;;;;14.00;7.63;;;7.80;87.30;;;;;;5001133;28;20489;-74
2021/03/26 02:14:01;;;;;;;13.48;6.63;;;7.80;87.60;;;;;;5000969;28;20026;-74
2021/03/26 02:16:27;;;;;;;21.65;6.85;;;7.80;87.60;;;;;;5012283;28;20022;-76
2021/03/26 02:18:52;;;;;;;10.68;6.50;;;7.70;87.80;;;;;;5028996;28;20417;-73
2021/03/26 02:21:24;;;;;;;14.05;7.00;;;7.70;87.30;;;;;;5014514;28;20026;-73
2021/03/26 02:23:51;;;;;;;16.83;7.03;;;7.70;87.20;;;;;;5013325;28;20030;-74
2021/03/26 02:26:24;;;;;;;18.13;7.47;;;7.70;86.90;;;;;;5010483;28;20070;-73
2021/03/26 02:28:51;;;;;;;13.10;7.28;;;7.70;87.20;;;;;;5005574;28;20374;-76
2021/03/26 02:31:18;;;;;;;19.98;7.60;;;7.60;87.50;;;;;;5006377;28;20374;-74
2021/03/26 02:33:44;;;;;;;13.63;7.40;;;7.60;88.00;;;;;;5014127;28;20157;-73
2021/03/26 02:36:13;;;;;;;17.92;7.63;;;7.50;88.50;;;;;;5012337;28;20037;-74
2021/03/26 02:38:47;;;;;;;13.52;7.15;;;7.60;88.00;;;;;;5012217;28;20026;-74
2021/03/26 02:41:31;;;;;;;23.50;8.80;;;7.60;88.00;;;;;;5009441;28;20053;-75
2021/03/26 02:44:23;;;;;;;20.70;7.82;;;7.70;87.90;;;;;;5010648;28;20519;-76
2021/03/26 02:47:11;;;;;;;14.13;7.07;;;7.70;87.90;;;;;;5010886;28;20138;-73
2021/03/26 02:49:56;;;;;;;18.50;7.93;;;7.70;88.10;;;;;;5013764;28;20034;-74
2021/03/26 02:52:55;;;;;;;18.00;7.88;;;7.60;88.10;;;;;;5004533;28;20089;-74
2021/03/26 02:55:27;;;;;;;19.20;8.00;;;7.70;88.20;;;;;;5005639;28;20030;-76
2021/03/26 02:57:57;;;;;;;15.35;7.82;;;7.70;88.00;;;;;;5012860;28;20025;-74
2021/03/26 03:00:37;;;;;;;18.98;8.65;;;7.70;88.30;;;;;;5007659;28;20109;-73
2021/03/26 03:03:04;;;;;;;16.90;8.02;;;7.80;88.00;;;;;;5003078;28;20018;-74
2021/03/26 03:05:35;;;;;;;16.98;7.85;;;7.80;87.30;;;;;;5008168;28;20122;-74
2021/03/26 03:08:21;;;;;;;18.70;8.90;;;7.80;87.30;;;;;;5007095;28;20018;-76
2021/03/26 03:10:56;;;;;;;15.23;7.80;;;7.70;87.50;;;;;;5002763;28;20027;-74
2021/03/26 03:13:44;;;;;;;18.67;7.55;;;7.70;87.50;;;;;;4995499;28;20030;-73
2021/03/26 03:16:29;;;;;;;16.80;7.90;;;7.70;87.00;;;;;;5003154;28;20054;-73
2021/03/26 03:19:01;;;;;;;19.83;7.57;;;7.70;87.20;;;;;;5013319;28;20034;-74
2021/03/26 03:21:44;;;;;;;18.70;7.97;;;7.70;86.90;;;;;;5013565;28;20076;-76
2021/03/26 03:24:15;;;;;;;14.70;8.20;;;7.70;86.90;;;;;;5012218;28;20060;-75
2021/03/26 03:27:04;;;;;;;13.55;7.13;;;7.70;86.70;;;;;;5013105;28;20052;-74
2021/03/26 03:29:32;;;;;;;15.88;8.10;;;7.70;86.70;;;;;;5000873;28;20031;-73
2021/03/26 03:32:04;;;;;;;17.38;7.47;;;7.70;86.80;;;;;;5008898;28;20044;-74
2021/03/26 03:34:43;;;;;;;13.90;7.45;;;7.70;87.60;;;;;;5013250;28;20076;-76
2021/03/26 03:37:33;;;;;;;14.13;7.30;;;7.70;86.70;;;;;;5009893;28;20030;-75
2021/03/26 03:39:58;;;;;;;17.85;7.28;;;7.70;86.60;;;;;;5006554;28;20026;-74
2021/03/26 03:42:46;;;;;;;19.48;6.93;;;7.70;86.30;;;;;;5013079;28;20040;-74
2021/03/26 03:45:26;;;;;;;18.70;7.82;;;7.70;86.10;;;;;;5005557;28;20458;-73
2021/03/26 03:48:01;;;;;;;12.70;6.82;;;7.70;86.10;;;;;;5011171;28;20048;-75
2021/03/26 03:50:41;;;;;;;15.45;6.35;;;7.70;86.10;;;;;;5013012;28;20102;-74
2021/03/26 03:53:36;;;;;;;14.93;6.05;;;7.70;86.00;;;;;;4992833;28;20489;-74
2021/03/26 03:56:17;;;;;;;15.23;5.72;;;7.70;85.80;;;;;;5002946;28;20025;-74
2021/03/26 03:58:49;;;;;;;14.40;5.40;;;7.70;85.60;;;;;;5012594;28;20025;-75
2021/03/26 04:01:34;;;;;;;8.57;5.25;;;7.80;85.60;;;;;;5012706;28;20036;-76
2021/03/26 04:04:16;;;;;;;10.02;4.70;;;7.80;85.50;;;;;;4997626;28;20171;-73
2021/03/26 04:06:56;;;;;;;14.13;4.88;;;7.80;85.20;;;;;;5007976;28;20093;-74
2021/03/26 04:09:29;;;;;;;11.25;5.07;;;7.80;85.10;;;;;;5004455;28;20038;-75
2021/03/26 04:12:06;;;;;;;10.98;5.15;;;7.80;85.10;;;;;;4999699;28;20034;-75
2021/03/26 04:14:46;;;;;;;11.60;4.65;;;7.70;85.60;;;;;;4992637;28;20041;-76
2021/03/26 04:17:23;;;;;;;12.35;4.40;;;7.70;86.00;;;;;;5008935;28;20037;-74
2021/03/26 04:19:56;;;;;;;14.70;4.22;;;7.70;85.50;;;;;;5012600;28;20564;-74
2021/03/26 04:22:27;;;;;;;11.87;4.60;;;7.70;85.80;;;;;;5012336;28;20040;-74
2021/03/26 04:25:03;;;;;;;12.88;4.88;;;7.80;85.90;;;;;;5010812;28;20257;-75
2021/03/26 04:27:37;;;;;;;13.25;4.47;;;7.80;85.80;;;;;;5012095;28;20018;-76
2021/03/26 04:30:08;;;;;;;12.18;4.65;;;7.80;85.40;;;;;;4992132;28;20382;-76
2021/03/26 04:32:34;;;;;;;7.22;4.20;;;7.80;85.60;;;;;;5012391;28;20501;-76
2021/03/26 04:35:00;;;;;;;7.55;3.97;;;7.90;85.40;;;;;;5012375;28;20026;-74
2021/03/26 04:37:37;;;;;;;9.20;4.40;;;7.90;85.60;;;;;;5010727;28;20045;-75
2021/03/26 04:40:14;;;;;;;15.18;5.07;;;7.90;85.50;;;;;;5003925;28;20029;-75
2021/03/26 04:43:23;;;;;;;13.25;4.47;;;7.80;85.30;;;;;;5012444;28;20481;-74
2021/03/26 04:45:56;;;;;;;20.63;5.03;;;7.80;85.60;;;;;;5004965;28;20045;-74
2021/03/26 04:48:49;;;;;;;12.82;4.20;;;7.80;85.60;;;;;;5012776;28;20081;-74
2021/03/26 04:51:40;;;;;;;7.85;4.38;;;7.90;85.30;;;;;;5016155;28;20404;-76
2021/03/26 04:54:20;;;;;;;11.27;4.32;;;7.90;84.90;;;;;;4997795;28;20022;-76
2021/03/26 04:56:55;;;;;;;11.70;4.53;;;7.90;84.90;;;;;;5015999;28;20041;-73
2021/03/26 04:59:27;;;;;;;13.30;4.70;;;7.90;85.10;;;;;;5015752;28;20137;-74
2021/03/26 05:01:55;;;;;;;10.75;4.22;;;7.80;85.50;;;;;;5012077;28;20501;-73
2021/03/26 05:04:25;;;;;;;17.85;4.20;;;7.80;85.70;;;;;;5001547;28;20034;-76
2021/03/26 05:07:01;;;;;;;17.52;4.50;;;7.80;85.40;;;;;;5003547;28;20030;-74
2021/03/26 05:09:33;;;;;;;15.07;4.45;;;7.80;85.10;;;;;;5009841;28;20050;-74
2021/03/26 05:12:03;;;;;;;9.40;4.25;;;7.80;85.40;;;;;;5001797;28;20037;-74
2021/03/26 05:14:53;;;;;;;11.57;4.68;;;7.80;85.60;;;;;;4994977;28;20020;-74
2021/03/26 05:17:55;;;;;;;12.25;4.65;;;7.80;85.70;;;;;;5014114;28;20049;-76
2021/03/26 05:20:56;;;;;;;11.88;4.45;;;7.80;85.80;;;;;;5015165;28;20038;-75
2021/03/26 05:23:27;;;;;;;12.23;4.45;;;7.80;86.40;;;;;;5014792;28;20034;-74
2021/03/26 05:25:57;;;;;;;10.13;4.05;;;7.80;86.30;;;;;;5015250;28;20377;-74
2021/03/26 05:28:29;;;;;;;10.65;4.30;;;7.80;86.00;;;;;;5011896;28;20041;-74
2021/03/26 05:31:01;;;;;;;11.55;4.10;;;7.80;85.80;;;;;;5001362;28;20018;-76
2021/03/26 05:33:41;;;;;;;9.52;4.68;;;7.80;85.70;;;;;;5015531;28;20105;-74
2021/03/26 05:36:23;;;;;;;13.90;4.35;;;7.80;86.00;;;;;;5015141;28;20072;-74
2021/03/26 05:39:28;;;;;;;11.27;4.25;;;7.70;86.20;;;;;;5011571;28;20033;-74
2021/03/26 05:42:12;;;;;;;10.23;4.72;;;7.70;86.40;;;;;;5031367;28;20079;-74
2021/03/26 05:44:37;;;;;;;13.60;4.70;;;7.70;86.60;;;;;;5023984;28;20096;-76
2021/03/26 05:47:41;;;;;;;15.73;4.80;;;7.70;86.50;;;;;;5024285;28;20081;-76
2021/03/26 05:50:27;;;;;;;10.52;4.68;;;7.70;86.90;;;;;;4979159;28;20531;-74
2021/03/26 05:53:28;;;;;;;12.57;4.40;;;7.80;86.70;;;;;;5031388;28;20052;-74
2021/03/26 05:56:23;;;;;;;8.95;3.85;;;7.90;86.10;;;;;;4932538;29;20074;-76
2021/03/26 05:59:03;;;;;;;13.50;4.55;;;8.00;85.30;;;;;;5001934;28;20038;-76
2021/03/26 06:02:04;;;;;;;9.27;4.30;;;8.00;85.20;;;;;;5030699;28;20057;-74
2021/03/26 06:04:51;;;;;;;12.07;4.20;;;8.00;85.80;;;;;;5010935;28;20112;-74
2021/03/26 06:07:44;;;;;;;12.55;4.10;;;8.10;85.10;;;;;;5012224;28;20037;-74
2021/03/26 06:10:43;;;;;;;19.67;4.65;;;8.10;85.10;;;;;;4992855;28;20034;-75
2021/03/26 06:13:23;;;;;;;11.05;4.25;;;8.20;85.00;;;;;;5021350;28;20076;-74
2021/03/26 06:16:16;;;;;;;9.80;4.10;;;8.30;84.70;;;;;;5009719;28;20455;-74
2021/03/26 06:19:01;;;;;;;12.18;3.85;;;8.30;84.80;;;;;;5014815;28;20104;-74
2021/03/26 06:21:34;;;;;;;11.68;4.40;;;8.20;84.60;;;;;;5014976;28;20108;-75
2021/03/26 06:24:05;;;;;;;;;;;8.10;84.90;;;;;;5014064;28;20501;-76
2021/03/26 06:26:58;;;;;;;13.80;4.55;;;8.10;85.50;;;;;;5014415;28;19913;-74
2021/03/26 06:29:50;;;;;;;11.05;4.97;;;8.10;85.50;;;;;;5002145;28;20477;-76
2021/03/26 06:32:22;;;;;;;13.77;5.03;;;8.10;85.30;;;;;;5003838;28;20026;-76
2021/03/26 06:35:07;;;;;;;14.70;5.20;;;8.10;85.30;;;;;;5014083;28;20642;-77
2021/03/26 06:38:06;;;;;;;8.32;4.57;;;8.00;86.20;;;;;;4998383;28;20028;-77
2021/03/26 06:40:53;;;;;;;11.95;5.15;;;8.00;86.10;;;;;;5008311;28;20037;-76
2021/03/26 06:43:40;;;;;;;9.05;4.40;;;8.00;85.80;;;;;;5013892;28;20030;-76
2021/03/26 06:46:40;;;;;;;13.48;5.30;;;8.10;85.60;;;;;;5003726;28;20378;-76
2021/03/26 06:49:17;;;;;;;9.20;5.45;;;8.20;85.00;;;;;;5013745;28;20058;-77
2021/03/26 06:51:55;;;;;;;13.85;5.47;;;8.30;84.40;;;;;;5013769;28;20037;-76
2021/03/26 06:54:36;;;;;;;22.10;5.30;;;8.40;85.00;;;;;;5004976;28;20500;-76
2021/03/26 06:57:04;;;;;;;20.52;5.82;;;8.40;84.60;;;;;;5013376;28;20084;-74
2021/03/26 06:59:52;;;;;;;13.32;5.50;;;8.60;84.00;;;;;;5005309;28;20022;-74
2021/03/26 07:02:48;;;;;;;13.40;4.75;;;8.80;83.70;;;;;;5006384;28;20434;-76
2021/03/26 07:05:25;;;;;;;13.27;4.10;;;8.90;82.80;;;;;;4999590;28;20116;-74
2021/03/26 07:08:33;;;;;;;11.20;4.38;;;8.90;81.80;;;;;;4990315;28;20031;-76
2021/03/26 07:11:30;;;;;;;7.88;4.07;;;9.10;82.00;;;;;;5008855;28;20034;-76
2021/03/26 07:14:15;;;;;;;11.60;4.50;;;9.30;81.50;;;;;;4992667;28;20030;-76
2021/03/26 07:17:02;;;;;;;8.55;5.00;;;9.40;81.20;;;;;;4988991;28;20113;-77
2021/03/26 07:20:21;;;;;;;11.50;4.88;;;9.60;80.80;;;;;;4987295;28;20084;-74
2021/03/26 07:23:08;;;;;;;13.90;5.50;;;9.90;78.80;;;;;;5005313;28;20034;-74
2021/03/26 07:26:11;;;;;;;12.90;5.00;;;10.20;77.30;;;;;;4992705;28;20396;-74
2021/03/26 07:28:57;;;;;;;11.77;4.25;;;10.40;77.10;;;;;;4993663;28;20501;-76
2021/03/26 07:31:53;;;;;;;16.70;4.57;;;10.60;76.70;;;;;;4996535;28;20030;-74
2021/03/26 07:34:29;;;;;;;10.63;4.03;;;10.80;76.80;;;;;;4992949;28;20433;-74
2021/03/26 07:37:10;;;;;;;20.63;4.57;;;11.30;74.20;;;;;;4993137;28;20110;-74
2021/03/26 07:39:42;;;;;;;16.17;3.80;;;11.60;72.30;;;;;;5008253;28;20030;-76
2021/03/26 07:42:15;;;;;;;17.57;3.63;;;11.70;72.80;;;;;;4995545;28;20029;-76
2021/03/26 07:45:02;;;;;;;14.00;3.72;;;11.60;73.50;;;;;;4999936;28;20034;-76
2021/03/26 07:47:38;;;;;;;17.20;4.20;;;11.60;75.00;;;;;;5000088;28;20409;-74
2021/03/26 07:50:27;;;;;;;9.15;3.28;;;11.90;73.20;;;;;;4995208;28;20022;-74
2021/03/26 07:53:18;;;;;;;10.57;3.30;;;12.40;72.20;;;;;;4996146;28;20501;-76
2021/03/26 07:56:02;;;;;;;9.27;3.33;;;12.70;70.40;;;;;;4992695;28;20081;-75
2021/03/26 07:59:03;;;;;;;10.38;3.22;;;12.70;70.00;;;;;;4987280;28;20445;-75
2021/03/26 08:01:47;;;;;;;7.18;2.70;;;12.90;69.30;;;;;;4998683;28;20076;-75
2021/03/26 08:04:29;;;;;;;8.25;2.83;;;16.10;58.50;;;;;;4998102;28;20068;-75
2021/03/26 08:07:48;;;;;;;11.68;2.72;;;18.40;50.40;;;;;;4996896;28;20058;-76
2021/03/26 08:10:29;;;;;;;10.88;2.67;;;19.90;45.40;;;;;;4988439;28;20026;-75
2021/03/26 08:13:15;;;;;;;10.52;2.55;;;21.20;42.50;;;;;;4970253;28;20468;-76
2021/03/26 08:16:00;;;;;;;5.70;2.00;;;21.80;40.40;;;;;;4996835;28;20378;-76
2021/03/26 08:18:44;;;;;;;7.35;2.10;;;21.40;38.30;;;;;;4987760;28;20030;-76
2021/03/26 08:21:30;;;;;;;5.32;2.53;;;21.80;37.80;;;;;;4990539;28;20032;-77
2021/03/26 08:24:33;;;;;;;6.70;2.38;;;21.80;38.50;;;;;;4994593;28;20053;-76
2021/03/26 08:27:26;;;;;;;3.40;1.90;;;22.40;37.80;;;;;;4997417;28;20490;-76
2021/03/26 08:29:52;;;;;;;6.63;2.42;;;22.30;37.60;;;;;;4991331;28;20038;-76
2021/03/26 08:32:47;;;;;;;4.18;2.03;;;21.70;38.10;;;;;;4994629;28;20042;-77
2021/03/26 08:35:41;;;;;;;5.38;1.70;;;22.40;36.50;;;;;;5004508;28;20469;-76
2021/03/26 08:38:31;;;;;;;3.75;1.42;;;19.80;40.60;;;;;;4996536;28;20023;-75
2021/03/26 08:41:01;;;;;;;7.60;1.83;;;17.20;47.00;;;;;;4993272;28;20057;-75
2021/03/26 08:43:30;;;;;;;4.70;1.25;;;17.90;46.80;;;;;;4992665;28;20599;-76
2021/03/26 08:46:20;;;;;;;4.10;1.25;;;18.80;42.60;;;;;;5001788;28;20014;-76
2021/03/26 08:49:23;;;;;;;4.68;1.40;;;17.60;44.80;;;;;;4993040;28;20053;-75
2021/03/26 08:52:00;;;;;;;2.70;1.40;;;17.50;47.10;;;;;;4997138;28;20035;-75
2021/03/26 08:54:59;;;;;;;3.78;1.33;;;17.80;45.90;;;;;;4989866;28;20115;-75
2021/03/26 08:57:46;;;;;;;4.30;1.45;;;17.30;47.00;;;;;;4998061;28;20038;-76
2021/03/26 09:00:49;;;;;;;7.68;1.67;;;17.00;48.00;;;;;;4993762;28;20041;-77
2021/03/26 09:03:30;;;;;;;7.07;1.42;;;18.70;45.10;;;;;;4988477;28;20363;-75
2021/03/26 09:06:13;;;;;;;4.38;1.50;;;18.00;46.80;;;;;;4996273;28;20039;-75
2021/03/26 09:08:43;;;;;;;5.72;1.80;;;16.90;49.70;;;;;;4983047;28;20101;-75
2021/03/26 09:11:28;;;;;;;5.97;1.95;;;17.90;48.20;;;;;;4983456;28;20148;-75
2021/03/26 09:13:56;;;;;;;4.38;1.80;;;18.00;47.00;;;;;;4992811;28;20026;-76
2021/03/26 09:16:28;;;;;;;6.05;2.40;;;18.40;45.10;;;;;;4986517;28;20045;-75
2021/03/26 09:19:14;;;;;;;4.85;2.00;;;20.00;43.90;;;;;;5000975;28;20397;-75
2021/03/26 09:21:40;;;;;;;6.82;2.03;;;21.50;40.90;;;;;;4993087;28;20425;-75
2021/03/26 09:24:08;;;;;;;3.53;1.60;;;20.00;42.00;;;;;;4994379;28;20041;-75
2021/03/26 09:26:56;;;;;;;3.92;1.40;;;19.40;45.00;;;;;;4991812;28;20536;-75
2021/03/26 09:29:44;;;;;;;5.60;1.40;;;19.20;44.50;;;;;;4999241;28;20027;-75
2021/03/26 09:32:27;;;;;;;4.63;1.95;;;18.40;45.90;;;;;;5014238;28;20058;-75
2021/03/26 09:35:05;;;;;;;5.15;2.00;;;19.70;45.50;;;;;;5004670;28;20026;-76
2021/03/26 09:37:51;;;;;;;3.80;1.70;;;21.90;40.60;;;;;;5009639;28;20030;-76
2021/03/26 09:40:41;;;;;;;6.47;2.00;;;22.70;38.50;;;;;;5016964;28;20026;-75
2021/03/26 09:43:30;;;;;;;7.72;1.90;;;19.70;43.50;;;;;;5002245;28;20053;-76
2021/03/26 09:46:09;;;;;;;5.00;1.90;;;18.60;45.90;;;;;;4994418;28;20078;-75
2021/03/26 09:49:11;;;;;;;9.05;1.90;;;18.40;47.20;;;;;;5009508;28;20194;-75
2021/03/26 09:51:48;;;;;;;7.28;2.38;;;17.60;49.60;;;;;;4997863;28;20034;-75
2021/03/26 09:54:32;;;;;;;4.60;2.22;;;16.90;52.70;;;;;;4998780;28;20529;-75
2021/03/26 09:57:22;;;;;;;6.60;2.08;;;16.40;54.10;;;;;;4991358;28;20022;-75
2021/03/26 10:00:25;;;;;;;8.52;2.25;;;16.00;55.20;;;;;;5007309;28;20489;-75
2021/03/26 10:03:15;;;;;;;10.95;2.75;;;15.40;58.30;;;;;;4998137;28;20034;-75
2021/03/26 10:05:54;;;;;;;11.13;2.20;;;15.50;59.60;;;;;;4990380;28;20026;-76
2021/03/26 10:09:24;;;;;;;6.03;2.30;;;15.20;58.70;;;;;;4993057;28;20031;-74
2021/03/26 10:11:28;;;;;;;8.23;2.65;;;15.40;57.40;;;;;;4990427;28;20501;-74
2021/03/26 10:14:18;;;;;;;9.02;2.13;;;15.40;58.40;;;;;;4997266;28;20038;-74
2021/03/26 10:16:53;;;;;;;12.50;2.38;;;15.10;58.00;;;;;;4992033;28;20030;-74
2021/03/26 10:19:50;;;;;;;13.60;2.63;;;15.10;59.70;;;;;;4989853;28;20026;-74
2021/03/26 10:22:43;;;;;;;6.60;1.88;;;15.60;57.70;;;;;;4995545;28;20038;-74
2021/03/26 10:25:24;;;;;;;6.38;1.73;;;15.30;58.80;;;;;;4998824;28;20041;-74
2021/03/26 10:28:03;;;;;;;7.45;1.80;;;15.90;55.00;;;;;;4996947;28;20433;-74
2021/03/26 10:30:39;;;;;;;5.82;1.55;;;16.20;56.20;;;;;;4995006;28;20037;-76
2021/03/26 10:33:09;;;;;;;10.38;1.30;;;16.30;53.00;;;;;;5003872;28;20054;-74
2021/03/26 10:35:38;;;;;;;8.60;1.20;;;16.80;50.80;;;;;;5009290;28;20037;-77
2021/03/26 10:38:15;;;;;;;5.22;1.45;;;16.40;52.60;;;;;;4996844;28;20046;-74
2021/03/26 10:40:58;;;;;;;5.78;1.02;;;16.50;54.00;;;;;;4992799;28;20030;-74
2021/03/26 10:43:45;;;;;;;14.50;1.27;;;16.50;49.60;;;;;;4995495;28;20056;-78
2021/03/26 10:46:15;;;;;;;4.13;1.02;;;16.10;50.70;;;;;;4990369;28;20548;-78
2021/03/26 10:48:54;;;;;;;7.95;1.13;;;16.20;51.80;;;;;;5009920;28;20022;-73
2021/03/26 10:51:38;;;;;;;8.60;0.98;;;16.40;51.30;;;;;;5003129;28;20026;-74
2021/03/26 10:54:07;;;;;;;9.77;0.88;;;16.00;51.10;;;;;;4994862;28;20027;-74
2021/03/26 10:57:02;;;;;;;2.80;0.90;;;15.90;51.60;;;;;;5001083;28;20084;-77
2021/03/26 10:59:42;;;;;;;5.75;1.13;;;15.80;53.20;;;;;;5002352;28;20014;-74
2021/03/26 11:02:22;;;;;;;4.88;0.90;;;15.50;52.80;;;;;;4998326;28;20022;-74
2021/03/26 11:04:59;;;;;;;6.03;0.93;;;15.70;54.50;;;;;;5005136;28;20040;-74
2021/03/26 11:07:30;;;;;;;4.63;0.90;;;15.50;55.60;;;;;;4995111;28;20030;-77
2021/03/26 11:10:01;;;;;;;5.40;1.17;;;15.30;59.30;;;;;;4996243;28;20030;-77
2021/03/26 11:12:51;;;;;;;2.83;0.90;;;15.60;57.40;;;;;;4988068;28;20480;-74
2021/03/26 11:15:23;;;;;;;5.05;1.30;;;16.00;57.60;;;;;;5002592;28;20540;-76
2021/03/26 11:18:04;;;;;;;4.85;1.20;;;15.80;58.20;;;;;;4997708;28;20032;-74
2021/03/26 11:20:41;;;;;;;5.63;1.38;;;15.40;59.80;;;;;;5007878;28;20026;-77
2021/03/26 11:23:26;;;;;;;6.10;1.10;;;15.30;60.70;;;;;;4997232;28;20029;-76
2021/03/26 11:26:06;;;;;;;4.18;1.10;;;14.90;62.00;;;;;;4994862;28;20435;-74
2021/03/26 11:28:52;;;;;;;8.73;1.35;;;14.90;62.70;;;;;;5001662;28;20511;-76
2021/03/26 11:31:30;;;;;;;6.75;1.42;;;14.80;63.10;;;;;;4992085;28;20030;-75
2021/03/26 11:34:12;;;;;;;5.28;1.25;;;15.10;63.00;;;;;;5003246;28;20037;-76
2021/03/26 11:36:46;;;;;;;7.60;1.33;;;15.20;62.00;;;;;;4993504;28;20033;-77
2021/03/26 11:39:12;;;;;;;7.03;1.20;;;15.20;63.00;;;;;;4996970;28;20026;-77
2021/03/26 11:41:59;;;;;;;6.70;1.08;;;15.10;62.60;;;;;;4992898;28;20385;-75
2021/03/26 11:44:30;;;;;;;2.55;1.10;;;15.00;64.10;;;;;;4990666;28;20043;-75
2021/03/26 11:47:00;;;;;;;7.80;1.10;;;15.60;61.70;;;;;;4988030;28;20060;-76
2021/03/26 11:49:39;;;;;;;8.07;0.98;;;15.80;61.80;;;;;;5011778;28;20052;-77
2021/03/26 11:52:16;;;;;;;7.63;1.10;;;16.20;62.70;;;;;;4996215;28;20018;-75
2021/03/26 11:54:55;;;;;;;5.65;1.08;;;15.90;62.10;;;;;;4992329;28;20126;-75
2021/03/26 11:57:45;;;;;;;6.00;0.90;;;15.20;64.20;;;;;;4992570;28;20033;-74
2021/03/26 12:00:36;;;;;;;7.35;1.20;;;15.70;64.00;;;;;;5011493;28;20608;-74
2021/03/26 12:03:10;;;;;;;5.38;0.70;;;15.70;64.00;;;;;;4995125;28;20448;-76
2021/03/26 12:05:36;;;;;;;4.15;0.90;;;15.40;65.00;;;;;;4991105;28;20038;-75
2021/03/26 12:08:05;;;;;;;6.10;0.75;;;15.50;65.60;;;;;;4989119;28;20405;-76
2021/03/26 12:10:40;;;;;;;3.10;0.80;;;15.70;64.50;;;;;;4994103;28;20391;-73
2021/03/26 12:13:20;;;;;;;5.32;1.50;;;15.70;63.20;;;;;;4986099;28;20038;-74
2021/03/26 12:16:01;;;;;;;9.05;1.48;;;15.40;64.70;;;;;;5002164;28;20037;-75
2021/03/26 12:18:45;;;;;;;5.57;0.80;;;15.60;64.90;;;;;;4997181;28;20033;-73
2021/03/26 12:21:41;;;;;;;4.75;1.10;;;15.50;63.20;;;;;;4992336;28;20068;-73
2021/03/26 12:24:17;;;;;;;5.97;1.10;;;15.40;65.60;;;;;;4998700;28;20121;-75
2021/03/26 12:27:25;;;;;;;6.22;1.30;;;15.80;64.90;;;;;;5007904;28;20029;-76
2021/03/26 12:30:15;;;;;;;6.65;1.40;;;16.00;64.20;;;;;;4990567;28;20517;-75
2021/03/26 12:32:54;;;;;;;6.50;1.20;;;15.80;65.40;;;;;;4992307;28;20022;-76
2021/03/26 12:35:43;;;;;;;5.47;1.38;;;15.70;66.00;;;;;;4997953;28;20030;-74
2021/03/26 12:38:26;;;;;;;3.92;1.20;;;15.90;65.40;;;;;;5001783;28;20030;-75
2021/03/26 12:41:10;;;;;;;6.47;1.10;;;16.20;66.10;;;;;;4990778;28;20461;-75
2021/03/26 12:43:44;;;;;;;5.07;1.20;;;16.00;66.00;;;;;;5004564;28;20034;-74
2021/03/26 12:46:10;;;;;;;8.63;1.50;;;15.70;67.20;;;;;;4993990;28;20049;-74
2021/03/26 12:49:04;;;;;;;4.90;1.10;;;15.80;66.20;;;;;;4989803;28;20030;-75
2021/03/26 12:51:36;;;;;;;5.13;0.82;;;15.70;65.90;;;;;;4992468;28;20038;-75
2021/03/26 12:54:40;;;;;;;8.27;1.42;;;15.40;65.00;;;;;;4995763;28;20024;-78
2021/03/26 12:57:26;;;;;;;3.78;0.75;;;15.40;64.20;;;;;;4992201;28;20104;-75
2021/03/26 13:00:03;;;;;;;4.43;1.15;;;15.10;66.70;;;;;;5003345;28;20027;-76
2021/03/26 13:02:34;;;;;;;7.65;1.17;;;15.40;68.10;;;;;;4995138;28;20382;-77
2021/03/26 13:05:30;;;;;;;5.93;0.88;;;15.50;69.20;;;;;;5001519;28;20088;-78
2021/03/26 13:08:19;;;;;;;8.43;1.05;;;15.50;67.90;;;;;;4999132;28;20052;-77
2021/03/26 13:11:10;;;;;;;6.00;1.17;;;15.40;66.80;;;;;;5002163;28;20088;-77
2021/03/26 13:13:48;;;;;;;18.67;2.28;;;15.10;68.70;;;;;;4998316;28;20553;-77
2021/03/26 13:16:19;;;;;;;10.75;1.05;;;15.30;70.00;;;;;;5002866;28;20486;-77
2021/03/26 13:19:17;;;;;;;6.50;1.00;;;15.40;70.30;;;;;;4998584;28;20061;-77
2021/03/26 13:21:48;;;;;;;6.00;1.00;;;15.50;69.20;;;;;;4998997;28;20125;-76
2021/03/26 13:24:44;;;;;;;8.02;1.40;;;15.60;68.90;;;;;;5000348;28;20113;-76
2021/03/26 13:27:19;;;;;;;5.43;1.20;;;15.20;69.80;;;;;;4998291;28;20504;-76
2021/03/26 13:30:05;;;;;;;13.68;1.98;;;15.00;71.40;;;;;;4994989;28;20034;-73
2021/03/26 13:32:56;;;;;;;15.02;1.80;;;15.00;72.00;;;;;;4982592;28;20042;-77
2021/03/26 13:35:47;;;;;;;18.45;2.30;;;15.20;71.80;;;;;;5007949;28;20040;-78
2021/03/26 13:38:38;;;;;;;6.72;1.17;;;15.30;69.60;;;;;;5006874;28;20034;-76
2021/03/26 13:41:07;;;;;;;7.25;1.13;;;15.30;70.40;;;;;;5000813;28;20027;-73
2021/03/26 13:43:40;;;;;;;7.60;1.50;;;15.40;69.10;;;;;;4999844;28;20035;-78
2021/03/26 13:46:14;;;;;;;;;;;15.10;70.80;;;;;;5006921;28;20707;-77
2021/03/26 13:48:42;;;;;;;5.07;1.10;;;15.00;71.50;;;;;;4988817;28;20292;-74
2021/03/26 13:51:13;;;;;;;6.68;1.05;;;15.20;71.20;;;;;;4998438;28;20077;-76